createdAt,value
2022-09-06T00:00:32.195Z,55.89
2022-09-06T00:03:01.058Z,55.50
2022-09-06T00:05:30.888Z,56.14
2022-09-06T00:08:00.687Z,55.72
2022-09-06T00:10:30.617Z,55.76
2022-09-06T00:13:03.296Z,55.94
2022-09-06T00:15:33.567Z,55.64
2022-09-06T00:18:03.797Z,55.68
2022-09-06T00:20:34.620Z,55.51
2022-09-06T00:23:05.617Z,55.69
2022-09-06T00:25:35.149Z,56.22
2022-09-06T00:28:06.220Z,56.09
2022-09-06T00:30:35.937Z,55.93
2022-09-06T00:33:04.387Z,56.26
2022-09-06T00:35:32.779Z,56.57
2022-09-06T00:38:02.857Z,56.72
2022-09-06T00:40:33.808Z,57.08
2022-09-06T00:43:02.245Z,57.17
2022-09-06T00:45:31.681Z,57.49
2022-09-06T00:48:03.646Z,57.69
2022-09-06T00:50:33.133Z,57.69
2022-09-06T00:53:01.787Z,57.74
2022-09-06T00:55:30.294Z,57.62
2022-09-06T00:57:58.882Z,57.95
2022-09-06T01:00:27.326Z,57.80
2022-09-06T01:02:56.067Z,58.10
2022-09-06T01:05:36.175Z,58.80
2022-09-06T01:08:16.518Z,59.60
2022-09-06T01:11:20.428Z,60.19
2022-09-06T01:13:58.379Z,60.74
2022-09-06T01:16:36.804Z,61.03
2022-09-06T01:19:49.763Z,61.34
2022-09-06T01:22:44.141Z,61.26
2022-09-06T01:25:36.582Z,61.31
2022-09-06T01:28:29.349Z,61.25
2022-09-06T01:31:11.146Z,61.34
2022-09-06T01:33:49.507Z,61.72
2022-09-06T01:36:23.353Z,62.44
2022-09-06T01:38:52.073Z,62.63
2022-09-06T01:41:20.417Z,63.14
2022-09-06T01:43:52.819Z,63.48
2022-09-06T01:46:31.908Z,63.63
2022-09-06T01:49:28.764Z,63.59
2022-09-06T01:52:10.959Z,63.66
2022-09-06T01:55:00.008Z,63.51
2022-09-06T01:57:56.390Z,63.95
2022-09-06T02:00:27.121Z,64.07
2022-09-06T02:03:07.414Z,63.89
2022-09-06T02:05:40.700Z,64.12
2022-09-06T02:08:16.956Z,64.13
2022-09-06T02:10:52.544Z,64.40
2022-09-06T02:13:24.300Z,64.38
2022-09-06T02:16:01.002Z,64.90
2022-09-06T02:18:34.656Z,65.02
2022-09-06T02:21:04.861Z,66.27
2022-09-06T02:23:39.327Z,66.89
2022-09-06T02:26:14.523Z,67.43
2022-09-06T02:28:43.248Z,67.36
2022-09-06T02:31:21.155Z,67.15
2022-09-06T02:33:52.015Z,67.13
2022-09-06T02:36:20.958Z,66.92
2022-09-06T02:38:49.683Z,65.75
2022-09-06T02:41:22.725Z,64.95
2022-09-06T02:43:51.369Z,64.32
2022-09-06T02:46:21.190Z,63.83
2022-09-06T02:48:49.557Z,64.02
2022-09-06T02:51:18.221Z,64.07
2022-09-06T02:53:46.635Z,64.39
2022-09-06T02:56:15.342Z,64.89
2022-09-06T02:58:43.816Z,65.67
2022-09-06T03:01:12.483Z,67.35
2022-09-06T03:03:42.591Z,67.65
2022-09-06T03:06:10.904Z,68.35
2022-09-06T03:08:39.400Z,68.53
2022-09-06T03:11:07.879Z,69.16
2022-09-06T03:13:36.373Z,69.50
2022-09-06T03:16:05.106Z,71.04
2022-09-06T03:18:33.979Z,71.77
2022-09-06T03:21:04.360Z,72.03
2022-09-06T03:23:32.712Z,72.05
2022-09-06T03:26:01.166Z,71.77
2022-09-06T03:28:30.119Z,71.69
2022-09-06T03:30:58.785Z,73.12
2022-09-06T03:33:27.299Z,73.57
2022-09-06T03:35:58.544Z,73.23
2022-09-06T03:38:30.351Z,73.22
2022-09-06T03:40:59.436Z,73.79
2022-09-06T03:43:28.674Z,74.74
2022-09-06T03:45:58.303Z,74.92
2022-09-06T03:48:30.155Z,75.02
2022-09-06T03:51:00.123Z,75.05
2022-09-06T03:53:30.686Z,75.19
2022-09-06T03:55:59.850Z,75.97
2022-09-06T03:58:32.594Z,75.47
2022-09-06T04:01:06.855Z,76.06
2022-09-06T04:03:36.378Z,76.56
2022-09-06T04:06:06.321Z,76.48
2022-09-06T04:08:37.388Z,76.05
2022-09-06T04:11:07.647Z,76.17
2022-09-06T04:13:36.852Z,76.54
2022-09-06T04:16:06.801Z,77.00
2022-09-06T04:18:35.327Z,76.46
2022-09-06T04:21:04.182Z,76.49
2022-09-06T04:23:35.353Z,76.61
2022-09-06T04:26:09.243Z,76.92
2022-09-06T04:28:37.593Z,77.46
2022-09-06T04:31:06.786Z,78.18
2022-09-06T04:33:38.185Z,78.51
2022-09-06T04:36:09.386Z,78.24
2022-09-06T04:38:40.029Z,78.39
2022-09-06T04:41:11.504Z,78.54
2022-09-06T04:43:40.017Z,78.28
2022-09-06T04:46:12.948Z,78.22
2022-09-06T04:48:41.308Z,78.16
2022-09-06T04:51:09.730Z,78.06
2022-09-06T04:53:38.045Z,78.13
2022-09-06T04:56:07.302Z,77.83
2022-09-06T04:58:36.986Z,77.81
2022-09-06T05:01:05.782Z,77.45
2022-09-06T05:03:34.264Z,77.16
2022-09-06T05:06:11.522Z,76.97
2022-09-06T05:08:41.660Z,76.89
2022-09-06T05:11:11.121Z,77.00
2022-09-06T05:13:42.357Z,77.41
2022-09-06T05:16:12.047Z,77.45
2022-09-06T05:18:40.524Z,77.92
2022-09-06T05:21:09.328Z,78.73
2022-09-06T05:23:37.841Z,79.14
2022-09-06T05:26:06.188Z,78.96
2022-09-06T05:28:34.967Z,78.91
2022-09-06T05:31:10.488Z,79.87
2022-09-06T05:33:39.476Z,79.98
2022-09-06T05:36:09.090Z,80.60
2022-09-06T05:38:37.391Z,81.18
2022-09-06T05:41:06.124Z,82.03
2022-09-06T05:43:34.536Z,82.51
2022-09-06T05:46:02.962Z,82.80
2022-09-06T05:48:36.850Z,83.29
2022-09-06T05:51:08.191Z,82.87
2022-09-06T05:53:37.464Z,82.30
2022-09-06T05:56:06.867Z,82.30
2022-09-06T05:58:35.884Z,82.60
2022-09-06T06:01:12.283Z,82.35
2022-09-06T06:03:43.219Z,81.88
2022-09-06T06:06:11.819Z,82.26
2022-09-06T06:08:40.266Z,81.93
2022-09-06T06:11:08.765Z,82.56
2022-09-06T06:13:39.581Z,82.32
2022-09-06T06:16:08.857Z,82.45
2022-09-06T06:18:37.720Z,82.73
2022-09-06T06:21:13.332Z,82.91
2022-09-06T06:23:42.925Z,83.26
2022-09-06T06:26:13.041Z,83.20
2022-09-06T06:28:41.922Z,82.99
2022-09-06T06:31:13.009Z,82.89
2022-09-06T06:33:42.585Z,83.21
2022-09-06T06:36:23.255Z,82.95
2022-09-06T06:38:54.821Z,82.18
2022-09-06T06:41:26.020Z,82.07
2022-09-06T06:43:55.376Z,82.34
2022-09-06T06:46:25.922Z,82.71
2022-09-06T06:48:55.619Z,82.70
2022-09-06T06:51:28.203Z,82.59
2022-09-06T06:53:57.809Z,83.20
2022-09-06T06:56:29.398Z,82.73
2022-09-06T06:59:00.228Z,82.72
2022-09-06T07:01:32.001Z,82.00
2022-09-06T07:04:00.786Z,81.01
2022-09-06T07:09:20.545Z,79.89
2022-09-06T07:11:49.714Z,79.66
2022-09-06T07:14:18.924Z,78.91
2022-09-06T07:16:47.499Z,79.80
2022-09-06T07:22:06.428Z,80.17
2022-09-06T07:24:35.453Z,79.66
2022-09-06T07:29:52.163Z,78.95
2022-09-06T07:32:20.517Z,78.53
2022-09-06T07:34:49.057Z,79.05
2022-09-06T07:37:18.968Z,79.29
2022-09-06T07:39:47.441Z,79.07
2022-09-06T07:42:16.714Z,79.54
2022-09-06T07:44:45.060Z,79.14
2022-09-06T07:53:13.854Z,77.30
2022-09-06T07:55:43.240Z,77.84
2022-09-06T07:58:12.063Z,78.43
2022-09-06T08:00:41.172Z,77.63
2022-09-06T08:03:10.582Z,77.33
2022-09-06T08:11:20.586Z,77.59
2022-09-06T08:13:51.947Z,77.08
2022-09-06T08:16:20.726Z,75.62
2022-09-06T08:18:53.674Z,74.60
2022-09-06T08:21:24.601Z,74.86
2022-09-06T08:23:58.871Z,74.25
2022-09-06T08:26:29.652Z,73.79
2022-09-06T08:29:01.118Z,74.54
2022-09-06T08:31:31.793Z,73.35
2022-09-06T08:34:02.028Z,73.85
2022-09-06T08:36:31.528Z,73.28
2022-09-06T08:39:02.724Z,72.59
2022-09-06T08:41:35.275Z,72.16
2022-09-06T08:47:00.229Z,71.62
2022-09-06T08:49:32.967Z,70.73
2022-09-06T08:52:25.079Z,70.86
2022-09-06T08:55:08.551Z,71.63
2022-09-06T08:57:55.502Z,70.66
2022-09-06T09:00:24.723Z,69.66
2022-09-06T09:03:02.146Z,68.38
2022-09-06T09:05:34.560Z,68.91
2022-09-06T09:08:16.079Z,68.67
2022-09-06T09:10:49.743Z,68.82
2022-09-06T09:13:26.527Z,67.76
2022-09-06T09:15:55.053Z,68.56
2022-09-06T09:18:27.611Z,68.65
2022-09-06T09:20:56.431Z,68.04
2022-09-06T09:23:24.861Z,67.19
2022-09-06T09:26:00.476Z,66.63
2022-09-06T09:28:29.094Z,65.74
2022-09-06T09:30:58.741Z,66.34
2022-09-06T09:33:32.887Z,65.82
2022-09-06T09:36:04.310Z,64.93
2022-09-06T09:38:41.753Z,64.51
2022-09-06T09:41:26.252Z,63.73
2022-09-06T09:44:03.640Z,63.39
2022-09-06T09:46:34.823Z,63.35
2022-09-06T09:49:08.506Z,63.02
2022-09-06T09:51:39.409Z,61.96
2022-09-06T09:54:10.156Z,62.08
2022-09-06T09:56:52.790Z,59.51
2022-09-06T09:59:25.648Z,59.21
2022-09-06T10:01:57.028Z,60.19
2022-09-06T10:04:48.759Z,59.52
2022-09-06T10:07:20.636Z,60.26
2022-09-06T10:09:51.021Z,59.91
2022-09-06T10:12:30.553Z,58.32
2022-09-06T10:15:01.209Z,59.68
2022-09-06T10:17:35.476Z,58.56
2022-09-06T10:20:09.406Z,57.84
2022-09-06T10:22:51.253Z,56.26
2022-09-06T10:25:43.010Z,55.52
2022-09-06T10:28:41.749Z,54.60
2022-09-06T10:31:45.593Z,53.63
2022-09-06T10:34:53.200Z,54.10
2022-09-06T10:37:39.274Z,55.37
2022-09-06T10:40:11.026Z,54.75
2022-09-06T10:42:45.140Z,53.00
2022-09-06T10:45:35.833Z,52.05
2022-09-06T10:48:14.572Z,53.43
2022-09-06T10:50:50.987Z,54.94
2022-09-06T10:53:34.156Z,54.05
2022-09-06T10:56:11.470Z,54.05
2022-09-06T11:01:44.029Z,52.39
2022-09-06T11:04:23.771Z,52.64
2022-09-06T11:06:58.853Z,53.67
2022-09-06T11:09:33.901Z,52.96
2022-09-06T11:12:09.361Z,53.18
2022-09-06T11:14:39.141Z,52.86
2022-09-06T11:17:15.186Z,52.73
2022-09-06T11:19:50.631Z,53.15
2022-09-06T11:22:50.093Z,53.36
2022-09-06T11:25:52.735Z,53.80
2022-09-06T11:28:30.244Z,53.67
2022-09-06T11:30:59.698Z,52.81
2022-09-06T11:33:31.859Z,53.60
2022-09-06T11:36:20.015Z,53.13
2022-09-06T11:38:57.101Z,52.48
2022-09-06T11:41:31.771Z,51.61
2022-09-06T11:44:00.962Z,52.17
2022-09-06T11:46:59.709Z,51.17
2022-09-06T11:49:41.911Z,50.77
2022-09-06T11:53:04.261Z,50.51
2022-09-06T11:55:37.977Z,51.75
2022-09-06T11:58:12.232Z,51.12
2022-09-06T12:00:40.804Z,52.04
2022-09-06T12:06:19.120Z,52.41
2022-09-06T12:08:48.670Z,52.08
2022-09-06T12:11:30.958Z,52.55
2022-09-06T12:14:03.805Z,52.47
2022-09-06T12:17:28.018Z,51.93
2022-09-06T12:20:06.211Z,52.05
2022-09-06T12:23:06.316Z,52.47
2022-09-06T12:25:57.384Z,51.87
2022-09-06T12:28:48.411Z,51.86
2022-09-06T12:31:39.540Z,52.39
2022-09-06T12:34:13.927Z,53.11
2022-09-06T12:36:56.619Z,52.03
2022-09-06T12:39:26.842Z,52.56
2022-09-06T12:41:59.067Z,52.57
2022-09-06T12:44:35.044Z,52.88
2022-09-06T12:47:12.980Z,53.30
2022-09-06T12:49:41.374Z,53.74
2022-09-06T12:52:13.809Z,52.71
2022-09-06T12:54:50.549Z,52.84
2022-09-06T12:57:22.774Z,54.10
2022-09-06T12:59:54.761Z,54.17
2022-09-06T13:02:37.206Z,53.59
2022-09-06T13:05:11.090Z,54.31
2022-09-06T13:07:44.188Z,54.26
2022-09-06T13:10:17.271Z,54.26
2022-09-06T13:12:49.035Z,54.99
2022-09-06T13:15:21.525Z,54.71
2022-09-06T13:17:50.558Z,54.71
2022-09-06T13:20:29.858Z,54.38
2022-09-06T13:23:09.841Z,55.48
2022-09-06T13:25:51.178Z,56.09
2022-09-06T13:28:29.289Z,57.27
2022-09-06T13:31:09.406Z,58.21
2022-09-06T13:33:38.992Z,57.05
2022-09-06T13:36:19.743Z,56.81
2022-09-06T13:38:48.292Z,56.51
2022-09-06T13:41:42.005Z,55.79
2022-09-06T13:44:29.602Z,55.95
2022-09-06T13:46:58.499Z,55.43
2022-09-06T13:49:28.301Z,55.50
2022-09-06T13:52:01.304Z,54.39
2022-09-06T13:54:30.761Z,54.03
2022-09-06T13:57:01.692Z,54.28
2022-09-06T13:59:31.866Z,56.48
2022-09-06T14:02:07.663Z,59.35
2022-09-06T14:04:36.636Z,61.13
2022-09-06T14:07:06.173Z,61.84
2022-09-06T14:09:34.736Z,62.17
2022-09-06T14:12:06.861Z,62.38
2022-09-06T14:14:35.659Z,62.80
2022-09-06T14:17:05.143Z,62.80
2022-09-06T14:19:33.694Z,63.06
2022-09-06T14:22:02.231Z,62.73
2022-09-06T14:24:30.790Z,62.54
2022-09-06T14:26:59.324Z,63.14
2022-09-06T14:29:29.107Z,63.59
2022-09-06T14:31:57.593Z,62.98
2022-09-06T14:34:26.069Z,63.64
2022-09-06T14:36:54.425Z,64.29
2022-09-06T14:39:22.843Z,65.23
2022-09-06T14:41:52.164Z,65.68
2022-09-06T14:44:20.942Z,66.05
2022-09-06T14:46:53.389Z,66.71
2022-09-06T14:49:22.246Z,66.81
2022-09-06T14:51:52.707Z,67.51
2022-09-06T14:54:24.142Z,68.69
2022-09-06T14:56:56.428Z,67.46
2022-09-06T14:59:25.231Z,67.68
2022-09-06T15:01:55.290Z,67.48
2022-09-06T15:04:23.910Z,64.79
2022-09-06T15:06:52.729Z,63.93
2022-09-06T15:09:21.195Z,65.97
2022-09-06T15:11:52.222Z,64.83
2022-09-06T15:14:23.152Z,63.96
2022-09-06T15:16:56.692Z,64.14
2022-09-06T15:19:26.842Z,62.68
2022-09-06T15:21:56.234Z,61.46
2022-09-06T15:24:25.587Z,61.79
2022-09-06T15:26:54.254Z,62.99
2022-09-06T15:29:23.360Z,66.09
2022-09-06T15:31:52.087Z,68.33
2022-09-06T15:34:24.723Z,66.90
2022-09-06T15:36:54.461Z,65.40
2022-09-06T15:39:23.444Z,63.42
2022-09-06T15:41:52.662Z,62.77
2022-09-06T15:44:22.249Z,62.97
2022-09-06T15:46:53.834Z,62.40
2022-09-06T15:49:28.425Z,62.65
2022-09-06T15:51:58.373Z,61.78
2022-09-06T15:54:41.240Z,60.57
2022-09-06T15:57:10.361Z,60.34
2022-09-06T15:59:40.328Z,58.83
2022-09-06T16:02:09.239Z,59.23
2022-09-06T16:04:39.207Z,58.60
2022-09-06T16:07:08.090Z,58.00
2022-09-06T16:09:36.636Z,57.85
2022-09-06T16:12:05.865Z,58.47
2022-09-06T16:14:34.831Z,59.08
2022-09-06T16:17:03.299Z,59.06
2022-09-06T16:19:31.826Z,59.42
2022-09-06T16:22:02.542Z,59.68
2022-09-06T16:24:31.220Z,57.30
2022-09-06T16:26:59.666Z,56.76
2022-09-06T16:29:28.282Z,56.71
2022-09-06T16:31:59.906Z,57.01
2022-09-06T16:34:28.555Z,57.10
2022-09-06T16:36:57.199Z,55.44
2022-09-06T16:39:27.102Z,55.25
2022-09-06T16:41:55.722Z,54.24
2022-09-06T16:44:24.132Z,53.83
2022-09-06T16:46:53.649Z,54.12
2022-09-06T16:49:22.221Z,52.09
2022-09-06T16:51:51.629Z,51.49
2022-09-06T16:54:20.784Z,51.73
2022-09-06T16:56:51.152Z,51.37
2022-09-06T16:59:21.649Z,50.82
2022-09-06T17:01:51.479Z,49.88
2022-09-06T17:04:20.237Z,50.51
2022-09-06T17:06:48.934Z,49.17
2022-09-06T17:09:20.328Z,50.51
2022-09-06T17:11:50.955Z,50.54
2022-09-06T17:14:19.988Z,50.44
2022-09-06T17:17:07.328Z,49.86
2022-09-06T17:19:37.638Z,49.67
2022-09-06T17:22:06.555Z,49.10
2022-09-06T17:24:35.102Z,49.21
2022-09-06T17:27:05.973Z,49.29
2022-09-06T17:29:34.932Z,49.28
2022-09-06T17:32:09.911Z,49.78
2022-09-06T17:34:39.284Z,49.80
2022-09-06T17:37:08.217Z,50.78
2022-09-06T17:39:36.989Z,49.93
2022-09-06T17:42:07.791Z,50.61
2022-09-06T17:44:36.449Z,50.84
2022-09-06T17:47:13.762Z,51.60
2022-09-06T17:49:43.446Z,51.09
2022-09-06T17:52:12.395Z,50.83
2022-09-06T17:54:40.792Z,50.75
2022-09-06T17:57:10.637Z,50.41
2022-09-06T17:59:39.536Z,50.02
2022-09-06T18:02:08.822Z,49.85
2022-09-06T18:04:38.139Z,49.70
2022-09-06T18:07:06.694Z,49.02
2022-09-06T18:09:36.905Z,49.60
2022-09-06T18:12:06.759Z,50.09
2022-09-06T18:14:36.878Z,50.27
2022-09-06T18:17:05.645Z,50.31
2022-09-06T18:19:34.090Z,50.91
2022-09-06T18:22:02.599Z,50.73
2022-09-06T18:24:31.134Z,51.16
2022-09-06T18:27:00.002Z,51.65
2022-09-06T18:29:28.603Z,51.70
2022-09-06T18:31:58.576Z,51.77
2022-09-06T18:34:27.138Z,51.90
2022-09-06T18:36:55.702Z,52.29
2022-09-06T18:39:24.382Z,52.57
2022-09-06T18:42:01.992Z,52.80
2022-09-06T18:44:33.349Z,53.37
2022-09-06T18:47:06.174Z,53.33
2022-09-06T18:49:38.548Z,53.68
2022-09-06T18:52:10.890Z,54.23
2022-09-06T18:54:39.724Z,54.32
2022-09-06T18:57:08.870Z,54.59
2022-09-06T18:59:38.176Z,54.10
2022-09-06T19:02:08.595Z,54.47
2022-09-06T19:04:37.221Z,54.63
2022-09-06T19:07:05.834Z,54.62
2022-09-06T19:09:37.575Z,54.92
2022-09-06T19:12:06.248Z,55.17
2022-09-06T19:14:34.876Z,55.53
2022-09-06T19:17:06.854Z,56.16
2022-09-06T19:19:38.594Z,56.38
2022-09-06T19:22:07.313Z,57.16
2022-09-06T19:24:36.072Z,57.36
2022-09-06T19:27:05.804Z,57.73
2022-09-06T19:29:34.362Z,57.77
2022-09-06T19:32:04.111Z,58.29
2022-09-06T19:34:33.674Z,58.75
2022-09-06T19:37:03.491Z,59.46
2022-09-06T19:39:36.800Z,60.19
2022-09-06T19:42:09.107Z,61.01
2022-09-06T19:44:37.503Z,61.43
2022-09-06T19:47:06.253Z,62.09
2022-09-06T19:49:34.708Z,62.19
2022-09-06T19:52:09.533Z,62.82
2022-09-06T19:54:38.209Z,63.46
2022-09-06T19:57:07.050Z,63.89
2022-09-06T19:59:36.553Z,64.18
2022-09-06T20:02:05.141Z,64.86
2022-09-06T20:04:33.718Z,65.81
2022-09-06T20:07:03.337Z,66.05
2022-09-06T20:09:33.780Z,66.27
2022-09-06T20:12:02.198Z,66.49
2022-09-06T20:14:31.241Z,66.55
2022-09-06T20:17:16.739Z,65.69
2022-09-06T20:19:49.047Z,65.40
2022-09-06T20:22:18.104Z,65.37
2022-09-06T20:24:50.706Z,65.24
2022-09-06T20:27:19.509Z,65.21
2022-09-06T20:29:48.353Z,65.18
2022-09-06T20:32:17.639Z,64.93
2022-09-06T20:34:46.134Z,64.97
2022-09-06T20:37:15.129Z,65.41
2022-09-06T20:39:43.778Z,65.27
2022-09-06T20:42:13.848Z,65.38
2022-09-06T20:44:42.557Z,65.31
2022-09-06T20:47:11.060Z,65.23
2022-09-06T20:49:39.598Z,65.37
2022-09-06T20:52:08.294Z,65.13
2022-09-06T20:54:37.292Z,64.91
2022-09-06T20:57:05.856Z,64.85
2022-09-06T20:59:36.045Z,64.90
2022-09-06T21:02:04.747Z,64.72
2022-09-06T21:04:33.270Z,64.78
2022-09-06T21:07:01.805Z,64.47
2022-09-06T21:09:31.010Z,64.22
2022-09-06T21:11:59.566Z,64.36
2022-09-06T21:14:28.050Z,64.81
2022-09-06T21:16:58.329Z,65.11
2022-09-06T21:19:26.841Z,65.53
2022-09-06T21:21:55.271Z,65.50
2022-09-06T21:24:23.760Z,65.70
2022-09-06T21:26:52.271Z,65.93
2022-09-06T21:29:20.744Z,66.01
2022-09-06T21:31:49.192Z,66.01
2022-09-06T21:34:19.105Z,66.08
2022-09-06T21:36:47.492Z,66.09
2022-09-06T21:39:16.363Z,65.83
2022-09-06T21:41:46.439Z,65.30
2022-09-06T21:44:15.376Z,65.82
2022-09-06T21:46:44.347Z,66.29
2022-09-06T21:49:14.669Z,66.36
2022-09-06T21:51:44.567Z,66.09
2022-09-06T21:54:13.213Z,65.87
2022-09-06T21:56:41.993Z,65.61
2022-09-06T21:59:11.526Z,64.91
2022-09-06T22:01:43.144Z,64.74
2022-09-06T22:04:13.904Z,64.78
2022-09-06T22:06:43.916Z,65.07
2022-09-06T22:09:14.017Z,65.12
2022-09-06T22:11:44.556Z,65.02
2022-09-06T22:14:15.655Z,65.09
2022-09-06T22:16:44.678Z,65.36
2022-09-06T22:19:15.081Z,65.17
2022-09-06T22:21:45.521Z,64.45
2022-09-06T22:24:14.638Z,64.74
2022-09-06T22:26:43.725Z,64.38
2022-09-06T22:29:15.064Z,64.30
2022-09-06T22:31:44.311Z,64.03
2022-09-06T22:34:12.977Z,64.10
2022-09-06T22:36:41.822Z,64.19
2022-09-06T22:39:11.695Z,64.28
2022-09-06T22:41:40.325Z,64.42
2022-09-06T22:44:08.848Z,64.82
2022-09-06T22:46:38.315Z,64.87
2022-09-06T22:49:06.956Z,64.71
2022-09-06T22:51:36.674Z,64.85
2022-09-06T22:54:06.886Z,64.40
2022-09-06T22:56:36.825Z,64.87
2022-09-06T22:59:05.531Z,64.81
2022-09-06T23:01:38.849Z,64.98
2022-09-06T23:04:07.771Z,64.59
2022-09-06T23:06:37.322Z,65.21
2022-09-06T23:09:06.979Z,65.24
2022-09-06T23:11:36.955Z,65.81
2022-09-06T23:14:05.930Z,66.07
2022-09-06T23:16:34.709Z,66.46
2022-09-06T23:19:03.242Z,66.49
2022-09-06T23:21:32.501Z,66.59
2022-09-06T23:24:01.034Z,66.61
2022-09-06T23:26:33.388Z,65.49
2022-09-06T23:29:03.494Z,65.14
2022-09-06T23:31:33.403Z,65.16
2022-09-06T23:34:03.195Z,65.02
2022-09-06T23:36:32.739Z,65.03
2022-09-06T23:39:02.285Z,64.76
2022-09-06T23:41:31.224Z,65.32
2022-09-06T23:44:00.086Z,65.08
2022-09-06T23:46:30.104Z,65.17
2022-09-06T23:48:58.863Z,65.61
2022-09-06T23:51:27.555Z,65.68
2022-09-06T23:53:56.009Z,65.86
2022-09-06T23:56:24.587Z,66.29
2022-09-06T23:58:53.241Z,66.34
